Time;durP1;ratioP1;P1;durP2;ratioP2;P2;SDS_P1;SDS_P2;PMS_P1;PMS_P2;Temp;Humidity;BMP_temperature;BMP_pressure;BME280_temperature;BME280_humidity;BME280_pressure;Samples;Min_cycle;Max_cycle;Signal;HPM_P1;HPM_P2
2021/06/05 00:01:21;;;;;;;7.60;6.83;;;18.50;99.90;;;;;;5057258;28;20489;-69
2021/06/05 00:03:48;;;;;;;7.77;7.00;;;18.50;99.90;;;;;;5056460;28;20892;-70
2021/06/05 00:06:17;;;;;;;7.27;6.67;;;18.50;1.00;;;;;;5056628;28;20467;-70
2021/06/05 00:08:45;;;;;;;9.30;7.53;;;18.50;1.00;;;;;;5056580;28;20470;-70
2021/06/05 00:11:13;;;;;;;7.83;7.13;;;18.50;1.00;;;;;;5057166;28;20489;-70
2021/06/05 00:13:42;;;;;;;7.03;6.53;;;18.40;1.00;;;;;;5055873;28;20461;-69
2021/06/05 00:16:11;;;;;;;8.80;8.10;;;18.40;1.00;;;;;;5056677;28;20458;-69
2021/06/05 00:18:37;;;;;;;7.40;6.60;;;18.40;1.00;;;;;;5056654;28;20459;-69
2021/06/05 00:21:05;;;;;;;7.73;7.00;;;18.40;1.00;;;;;;5056265;28;20613;-69
2021/06/05 00:23:33;;;;;;;7.30;6.70;;;18.40;1.00;;;;;;5056407;28;20906;-69
2021/06/05 00:26:00;;;;;;;10.00;7.40;;;18.30;1.00;;;;;;5056223;28;20467;-69
2021/06/05 00:28:27;;;;;;;7.90;7.20;;;18.30;1.00;;;;;;5056514;28;20545;-70
2021/06/05 00:30:54;;;;;;;7.40;6.60;;;18.30;1.00;;;;;;5056088;28;20913;-70
2021/06/05 00:33:20;;;;;;;7.20;6.53;;;18.30;1.00;;;;;;5056196;28;20792;-69
2021/06/05 00:35:50;;;;;;;7.13;6.50;;;18.30;1.00;;;;;;5056128;28;20470;-69
2021/06/05 00:38:17;;;;;;;7.90;7.20;;;18.30;1.00;;;;;;5056272;28;20455;-69
2021/06/05 00:40:48;;;;;;;7.03;6.40;;;18.30;1.00;;;;;;5056238;28;20459;-70
2021/06/05 00:43:17;;;;;;;6.87;6.30;;;18.20;1.00;;;;;;5056122;28;20799;-69
2021/06/05 00:45:45;;;;;;;7.80;7.17;;;18.20;1.00;;;;;;5056159;28;20455;-69
2021/06/05 00:48:12;;;;;;;10.20;7.17;;;18.20;1.00;;;;;;5056085;28;20455;-69
2021/06/05 00:50:40;;;;;;;8.50;7.23;;;18.20;1.00;;;;;;5055595;28;20469;-69
2021/06/05 00:53:08;;;;;;;16.70;13.80;;;18.10;62.40;;;;;;5056184;28;20460;-69
2021/06/05 00:55:39;;;;;;;8.77;7.97;;;18.10;99.90;;;;;;5055948;28;20451;-69
2021/06/05 00:58:09;;;;;;;7.23;6.53;;;18.10;99.90;;;;;;5056215;28;20458;-69
2021/06/05 01:00:40;;;;;;;7.13;6.47;;;18.10;99.90;;;;;;5055789;28;20469;-69
2021/06/05 01:03:07;;;;;;;9.27;6.47;;;18.00;99.90;;;;;;5055510;28;20440;-69
2021/06/05 01:05:36;;;;;;;6.93;6.33;;;18.00;99.90;;;;;;5055953;28;20455;-69
2021/06/05 01:08:11;;;;;;;5.73;5.23;;;18.00;1.00;;;;;;5055779;28;20455;-69
2021/06/05 01:10:41;;;;;;;7.37;6.60;;;18.00;1.00;;;;;;5056047;28;20510;-69
2021/06/05 01:13:15;;;;;;;6.93;6.27;;;18.00;1.00;;;;;;5056133;28;20455;-69
2021/06/05 01:15:48;;;;;;;7.83;7.03;;;17.90;1.00;;;;;;5055723;28;20486;-69
2021/06/05 01:18:19;;;;;;;7.60;6.73;;;18.00;1.00;;;;;;5055188;28;20439;-70
2021/06/05 01:20:57;;;;;;;7.30;6.60;;;17.90;1.00;;;;;;5055519;28;20446;-69
2021/06/05 01:23:34;;;;;;;9.20;6.83;;;17.90;1.00;;;;;;5055700;28;20463;-69
2021/06/05 01:26:09;;;;;;;6.67;6.03;;;17.80;30.70;;;;;;5055029;28;20774;-69
2021/06/05 01:28:40;;;;;;;6.97;6.37;;;17.80;99.90;;;;;;5055132;28;20705;-71
2021/06/05 01:31:11;;;;;;;7.50;6.80;;;17.70;99.90;;;;;;5054938;28;20501;-71
2021/06/05 01:33:44;;;;;;;8.00;7.20;;;17.70;1.00;;;;;;5054989;28;20762;-69
2021/06/05 01:36:12;;;;;;;8.07;7.37;;;17.60;1.00;;;;;;5054651;28;20439;-71
2021/06/05 01:38:44;;;;;;;9.67;7.63;;;17.60;99.90;;;;;;5055049;28;20470;-71
2021/06/05 01:41:14;;;;;;;8.20;6.60;;;17.60;99.90;;;;;;5055221;28;20455;-71
2021/06/05 01:43:41;;;;;;;7.50;6.87;;;17.60;99.90;;;;;;5054662;28;20916;-69
2021/06/05 01:46:08;;;;;;;7.90;6.80;;;17.60;99.90;;;;;;5055330;28;20459;-69
2021/06/05 01:48:35;;;;;;;7.37;6.70;;;17.50;99.90;;;;;;5056301;28;20455;-69
2021/06/05 01:51:07;;;;;;;9.50;7.87;;;17.50;1.00;;;;;;5057840;28;20451;-70
2021/06/05 01:53:38;;;;;;;8.10;7.33;;;17.50;1.00;;;;;;5057985;28;20439;-70
2021/06/05 01:56:11;;;;;;;7.47;6.87;;;17.40;1.00;;;;;;5056285;28;20518;-70
2021/06/05 01:58:41;;;;;;;7.93;7.10;;;17.40;1.00;;;;;;5054685;28;20444;-70
2021/06/05 02:01:08;;;;;;;7.90;6.83;;;17.40;41.20;;;;;;5054772;28;20458;-70
2021/06/05 02:03:35;;;;;;;9.97;7.47;;;17.40;99.90;;;;;;5054672;28;20479;-70
2021/06/05 02:06:01;;;;;;;7.30;6.70;;;17.40;1.00;;;;;;5054139;28;20469;-70
2021/06/05 02:08:28;;;;;;;7.23;6.63;;;17.40;1.00;;;;;;5054729;28;20512;-70
2021/06/05 02:11:03;;;;;;;8.50;7.40;;;17.40;1.00;;;;;;5054725;28;20540;-70
2021/06/05 02:13:35;;;;;;;8.00;7.30;;;17.40;99.90;;;;;;5054408;28;20442;-70
2021/06/05 02:16:09;;;;;;;9.00;7.50;;;17.40;1.00;;;;;;5054807;28;20443;-70
2021/06/05 02:18:37;;;;;;;9.23;8.40;;;17.50;1.00;;;;;;5054901;28;20768;-69
2021/06/05 02:21:07;;;;;;;8.90;8.10;;;17.50;1.00;;;;;;5054408;28;20459;-70
2021/06/05 02:23:39;;;;;;;9.47;8.10;;;17.50;99.90;;;;;;5054629;28;20536;-71
2021/06/05 02:26:09;;;;;;;8.30;7.50;;;17.50;99.90;;;;;;5054653;28;20454;-69
2021/06/05 02:28:36;;;;;;;8.50;7.70;;;17.50;99.90;;;;;;5054755;28;20447;-71
2021/06/05 02:31:06;;;;;;;8.73;7.93;;;17.50;99.90;;;;;;5054360;28;20451;-71
2021/06/05 02:33:35;;;;;;;8.07;7.30;;;17.40;99.90;;;;;;5054228;28;20809;-71
2021/06/05 02:36:03;;;;;;;8.03;7.27;;;17.40;99.90;;;;;;5054406;28;20497;-71
2021/06/05 02:38:30;;;;;;;7.80;7.20;;;17.40;99.90;;;;;;5058209;28;20463;-68
2021/06/05 02:40:58;;;;;;;8.90;7.70;;;17.40;99.90;;;;;;5058330;28;20474;-71
2021/06/05 02:43:32;;;;;;;7.83;6.87;;;17.40;99.90;;;;;;5058402;28;20470;-69
2021/06/05 02:46:02;;;;;;;8.23;7.53;;;17.30;99.90;;;;;;5058397;28;20774;-69
2021/06/05 02:48:43;;;;;;;8.67;7.57;;;17.30;1.00;;;;;;5058521;28;20447;-69
2021/06/05 02:51:12;;;;;;;8.50;7.60;;;17.30;1.00;;;;;;5058232;28;20521;-69
2021/06/05 02:53:38;;;;;;;8.07;7.30;;;17.30;1.00;;;;;;5058132;28;20455;-69
2021/06/05 02:56:05;;;;;;;7.90;7.10;;;17.20;1.00;;;;;;5057851;28;20951;-69
2021/06/05 02:58:31;;;;;;;7.97;7.00;;;17.20;88.10;;;;;;5058004;28;20481;-69
2021/06/05 03:00:57;;;;;;;7.67;7.07;;;17.10;99.90;;;;;;5058111;28;20469;-69
2021/06/05 03:03:24;;;;;;;8.00;7.30;;;17.10;1.00;;;;;;5057695;28;20463;-70
2021/06/05 03:05:52;;;;;;;8.13;7.43;;;17.10;6.60;;;;;;5057631;28;20458;-69
2021/06/05 03:08:23;;;;;;;9.30;7.93;;;17.10;99.90;;;;;;5058040;28;20520;-69
2021/06/05 03:10:49;;;;;;;8.37;7.47;;;17.10;99.90;;;;;;5057344;28;20446;-69
2021/06/05 03:13:15;;;;;;;7.83;7.20;;;17.10;99.90;;;;;;5057991;28;20459;-69
2021/06/05 03:15:44;;;;;;;8.93;6.63;;;17.20;1.00;;;;;;5057609;28;20508;-69
2021/06/05 03:18:11;;;;;;;8.73;7.57;;;17.20;1.00;;;;;;5057824;28;20792;-69
2021/06/05 03:20:41;;;;;;;7.60;6.90;;;17.20;1.00;;;;;;5057628;28;20908;-69
2021/06/05 03:23:13;;;;;;;8.47;7.67;;;17.20;1.00;;;;;;5057825;28;20481;-69
2021/06/05 03:25:39;;;;;;;7.90;7.10;;;17.30;99.90;;;;;;5057087;28;20443;-69
2021/06/05 03:28:07;;;;;;;8.50;7.70;;;17.30;99.90;;;;;;5057675;28;20884;-69
2021/06/05 03:30:34;;;;;;;7.23;6.63;;;17.30;24.80;;;;;;5057684;28;20832;-69
2021/06/05 03:33:00;;;;;;;9.13;7.57;;;17.30;1.00;;;;;;5057762;28;20455;-69
2021/06/05 03:35:27;;;;;;;8.17;7.37;;;17.30;1.00;;;;;;5057447;28;20532;-69
2021/06/05 03:37:53;;;;;;;8.10;7.30;;;17.20;1.00;;;;;;5057862;28;20937;-69
2021/06/05 03:40:24;;;;;;;9.00;7.40;;;17.20;99.90;;;;;;5057382;28;20797;-70
2021/06/05 03:42:50;;;;;;;7.83;7.13;;;17.20;99.90;;;;;;5057311;28;20513;-69
2021/06/05 03:45:17;;;;;;;8.37;7.57;;;17.20;99.90;;;;;;5057173;28;20490;-69
2021/06/05 03:47:46;;;;;;;8.60;7.53;;;17.30;1.00;;;;;;5056585;28;20459;-69
2021/06/05 03:50:14;;;;;;;8.23;7.37;;;17.30;1.00;;;;;;5056372;28;20488;-69
2021/06/05 03:52:40;;;;;;;8.60;7.33;;;17.30;1.00;;;;;;5057091;28;20486;-71
2021/06/05 03:55:09;;;;;;;8.47;7.37;;;17.30;1.00;;;;;;5056791;28;20454;-71
2021/06/05 03:57:37;;;;;;;8.03;6.97;;;17.40;99.90;;;;;;5056956;28;20458;-69
2021/06/05 04:00:05;;;;;;;7.40;6.70;;;17.40;1.00;;;;;;5057201;28;20791;-70
2021/06/05 04:02:31;;;;;;;8.43;7.40;;;17.50;99.90;;;;;;5056685;28;20933;-71
2021/06/05 04:04:57;;;;;;;7.60;7.00;;;17.50;99.90;;;;;;5056924;28;20478;-71
2021/06/05 04:07:23;;;;;;;7.30;6.60;;;17.60;99.90;;;;;;5056607;28;20455;-71
2021/06/05 04:09:50;;;;;;;8.43;7.73;;;17.60;99.90;;;;;;5057006;28;21017;-71
2021/06/05 04:12:16;;;;;;;7.73;7.03;;;17.60;99.90;;;;;;5056776;28;20455;-70
2021/06/05 04:14:43;;;;;;;8.40;6.43;;;17.70;1.00;;;;;;5056881;28;20455;-71
2021/06/05 04:17:10;;;;;;;7.63;6.93;;;17.70;1.00;;;;;;5056654;28;20784;-69
2021/06/05 04:19:37;;;;;;;7.93;7.03;;;17.80;8.20;;;;;;5056612;28;20470;-69
2021/06/05 04:22:06;;;;;;;7.17;6.47;;;17.90;1.00;;;;;;5056612;28;20463;-71
2021/06/05 04:24:33;;;;;;;7.20;6.50;;;17.90;1.00;;;;;;5056556;28;20513;-71
2021/06/05 04:26:59;;;;;;;7.00;6.30;;;18.00;99.90;;;;;;5056278;28;20469;-70
2021/06/05 04:29:25;;;;;;;6.07;5.57;;;18.10;99.90;;;;;;5056308;28;20493;-69
2021/06/05 04:31:53;;;;;;;7.73;6.90;;;18.10;52.60;;;;;;5056542;28;20794;-69
2021/06/05 04:34:19;;;;;;;7.03;6.37;;;18.20;1.00;;;;;;5056008;28;20494;-69
2021/06/05 04:36:45;;;;;;;6.40;5.83;;;18.30;1.00;;;;;;5056252;28;20496;-71
2021/06/05 04:39:12;;;;;;;6.60;6.03;;;18.30;1.00;;;;;;5056045;28;20942;-69
2021/06/05 04:41:38;;;;;;;7.13;6.53;;;18.40;1.00;;;;;;5055929;28;20919;-70
2021/06/05 04:44:05;;;;;;;5.90;5.40;;;18.40;1.00;;;;;;5056010;28;20489;-70
2021/06/05 04:46:31;;;;;;;6.50;5.90;;;18.50;1.00;;;;;;5056236;28;20458;-70
2021/06/05 04:49:02;;;;;;;6.60;6.03;;;18.60;99.90;;;;;;5055586;28;20920;-71
2021/06/05 04:51:30;;;;;;;6.20;5.60;;;18.60;99.90;;;;;;5056226;28;20447;-70
2021/06/05 04:53:57;;;;;;;6.67;5.97;;;18.70;91.60;;;;;;5056196;28;20545;-70
2021/06/05 04:56:31;;;;;;;6.63;6.00;;;18.80;1.00;;;;;;5055848;28;20474;-70
2021/06/05 04:58:58;;;;;;;6.03;5.50;;;18.90;1.00;;;;;;5056151;28;20439;-70
2021/06/05 05:01:24;;;;;;;6.07;5.57;;;18.90;1.00;;;;;;5055724;28;20950;-71
2021/06/05 05:03:50;;;;;;;6.63;5.30;;;19.00;1.00;;;;;;5056905;28;20931;-71
2021/06/05 05:06:18;;;;;;;6.80;6.20;;;19.00;1.00;;;;;;5055684;28;20463;-70
2021/06/05 05:08:44;;;;;;;6.70;5.67;;;19.10;1.00;;;;;;5055505;28;20466;-70
2021/06/05 05:11:10;;;;;;;7.40;4.90;;;19.20;1.00;;;;;;5055601;28;20455;-70
2021/06/05 05:13:37;;;;;;;7.63;6.00;;;19.20;1.00;;;;;;5055758;28;20455;-69
2021/06/05 05:16:06;;;;;;;6.83;6.17;;;19.30;1.00;;;;;;5055211;28;20459;-70
2021/06/05 05:18:33;;;;;;;5.87;5.37;;;19.40;1.00;;;;;;5056008;28;20459;-70
2021/06/05 05:21:01;;;;;;;5.73;5.33;;;19.50;1.00;;;;;;5055252;28;20470;-70
2021/06/05 05:23:29;;;;;;;5.80;5.30;;;19.50;99.90;;;;;;5055488;28;20478;-70
2021/06/05 05:25:57;;;;;;;5.20;4.80;;;19.60;99.90;;;;;;5056652;28;20459;-70
2021/06/05 05:28:25;;;;;;;5.33;4.93;;;19.70;99.90;;;;;;5058251;28;20524;-70
2021/06/05 05:30:53;;;;;;;4.90;4.50;;;19.80;99.90;;;;;;5059067;28;20459;-70
2021/06/05 05:33:21;;;;;;;5.60;5.07;;;19.80;99.90;;;;;;5054933;28;20463;-70
2021/06/05 05:35:48;;;;;;;5.57;5.07;;;19.90;99.90;;;;;;5055603;28;20450;-71
2021/06/05 05:38:15;;;;;;;6.27;5.23;;;20.00;99.90;;;;;;5055660;28;20436;-71
2021/06/05 05:40:46;;;;;;;5.37;4.97;;;20.00;99.90;;;;;;5055947;28;20451;-71
2021/06/05 05:43:12;;;;;;;5.43;5.00;;;20.10;99.90;;;;;;5055167;28;20505;-71
2021/06/05 05:45:39;;;;;;;5.07;4.63;;;20.20;99.90;;;;;;5055114;28;20490;-71
2021/06/05 05:48:08;;;;;;;4.87;4.47;;;20.30;99.90;;;;;;5054793;28;20455;-69
2021/06/05 05:50:36;;;;;;;5.33;4.83;;;20.30;99.90;;;;;;5055180;28;20483;-69
2021/06/05 05:53:03;;;;;;;6.00;5.50;;;20.40;99.90;;;;;;5054729;28;20455;-71
2021/06/05 05:55:29;;;;;;;4.57;4.17;;;20.50;99.90;;;;;;5054687;28;20608;-71
2021/06/05 05:58:07;;;;;;;4.80;4.40;;;20.60;99.90;;;;;;5054585;28;20470;-69
2021/06/05 06:00:36;;;;;;;4.47;4.10;;;20.60;99.90;;;;;;5054887;28;20454;-70
2021/06/05 06:03:02;;;;;;;5.80;4.90;;;20.70;97.10;;;;;;5054274;28;20451;-69
2021/06/05 06:05:29;;;;;;;5.43;4.73;;;20.80;95.10;;;;;;5054583;28;20532;-70
2021/06/05 06:07:55;;;;;;;7.47;4.60;;;20.90;93.40;;;;;;5054731;28;20531;-70
2021/06/05 06:10:23;;;;;;;8.13;4.80;;;20.90;85.10;;;;;;5054415;28;20451;-73
2021/06/05 06:12:50;;;;;;;5.57;4.70;;;21.00;77.80;;;;;;5053792;28;20513;-71
2021/06/05 06:15:20;;;;;;;4.83;4.43;;;21.10;58.00;;;;;;5054622;28;20589;-71
2021/06/05 06:17:46;;;;;;;4.77;4.27;;;21.10;50.60;;;;;;5054776;28;20746;-71
2021/06/05 06:20:18;;;;;;;5.07;4.60;;;21.20;52.20;;;;;;5054710;28;20459;-71
2021/06/05 06:22:44;;;;;;;4.70;4.33;;;21.30;36.70;;;;;;5054623;28;20447;-71
2021/06/05 06:25:12;;;;;;;4.83;4.40;;;21.30;23.40;;;;;;5054479;28;20482;-71
2021/06/05 06:27:42;;;;;;;4.87;4.37;;;21.40;13.30;;;;;;5054238;28;20597;-71
2021/06/05 06:30:10;;;;;;;5.10;4.60;;;21.40;7.90;;;;;;5055207;28;20459;-72
2021/06/05 06:32:37;;;;;;;4.93;4.43;;;21.50;4.80;;;;;;5055096;28;20833;-71
2021/06/05 06:35:04;;;;;;;4.43;4.00;;;21.60;1.00;;;;;;5054223;28;20479;-70
2021/06/05 06:37:31;;;;;;;6.57;4.07;;;21.60;1.00;;;;;;5054162;28;20469;-71
2021/06/05 06:39:57;;;;;;;4.60;4.20;;;21.70;1.00;;;;;;5054815;28;20451;-73
2021/06/05 06:42:23;;;;;;;4.30;4.00;;;21.80;1.00;;;;;;5055173;28;20485;-70
2021/06/05 06:44:49;;;;;;;4.83;4.33;;;21.80;1.00;;;;;;5054238;28;20487;-70
2021/06/05 06:47:16;;;;;;;4.60;4.20;;;21.90;1.00;;;;;;5054300;28;20939;-70
2021/06/05 06:49:43;;;;;;;4.80;4.40;;;22.00;1.00;;;;;;5054149;28;20455;-71
2021/06/05 06:52:11;;;;;;;4.17;3.77;;;22.00;1.00;;;;;;5054417;28;20481;-69
2021/06/05 06:54:38;;;;;;;5.27;4.73;;;22.10;1.00;;;;;;5054218;28;20455;-71
2021/06/05 06:57:05;;;;;;;4.90;4.50;;;22.10;1.00;;;;;;5054450;28;20462;-70
2021/06/05 06:59:32;;;;;;;4.27;3.90;;;22.20;1.00;;;;;;5054307;28;20473;-71
2021/06/05 07:01:59;;;;;;;4.23;3.83;;;22.30;1.00;;;;;;5054219;28;20462;-70
2021/06/05 07:04:25;;;;;;;4.13;3.80;;;22.30;1.00;;;;;;5054160;28;20494;-71
2021/06/05 07:06:53;;;;;;;4.53;4.13;;;22.40;1.00;;;;;;5054484;28;20459;-71
2021/06/05 07:09:19;;;;;;;6.37;4.57;;;22.50;1.00;;;;;;5054147;28;20462;-71
2021/06/05 07:11:45;;;;;;;4.57;3.80;;;22.60;1.00;;;;;;5054112;28;20455;-71
2021/06/05 07:14:11;;;;;;;4.10;3.80;;;22.70;1.00;;;;;;5054314;28;20463;-70
2021/06/05 07:16:38;;;;;;;4.13;3.70;;;22.80;1.00;;;;;;5053823;28;20459;-71
2021/06/05 07:19:06;;;;;;;3.77;3.40;;;22.90;1.00;;;;;;5054157;28;20859;-71
2021/06/05 07:21:33;;;;;;;4.43;4.03;;;23.00;1.00;;;;;;5054014;28;20455;-69
2021/06/05 07:24:00;;;;;;;3.70;3.40;;;23.10;1.00;;;;;;5056152;28;20474;-69
2021/06/05 07:26:28;;;;;;;3.60;3.30;;;23.20;1.00;;;;;;5057761;28;20457;-71
2021/06/05 07:28:57;;;;;;;4.00;3.70;;;23.30;1.00;;;;;;5057450;28;20459;-71
2021/06/05 07:31:27;;;;;;;4.20;3.90;;;23.40;1.00;;;;;;5057311;28;20466;-71
2021/06/05 07:33:54;;;;;;;2.97;2.77;;;23.50;1.00;;;;;;5057253;28;20536;-71
2021/06/05 07:36:24;;;;;;;3.63;3.30;;;23.50;1.00;;;;;;5057631;28;20545;-71
2021/06/05 07:38:50;;;;;;;3.10;2.90;;;23.60;1.00;;;;;;5057947;28;20816;-71
2021/06/05 07:41:19;;;;;;;3.70;3.40;;;23.70;1.00;;;;;;5057688;28;20458;-71
2021/06/05 07:43:45;;;;;;;3.33;3.07;;;23.70;1.00;;;;;;5057294;28;20466;-71
2021/06/05 07:46:11;;;;;;;3.27;2.97;;;23.70;1.00;;;;;;5057419;28;20478;-71
2021/06/05 07:48:38;;;;;;;4.53;3.13;;;23.80;1.00;;;;;;5057613;28;20459;-70
2021/06/05 07:51:06;;;;;;;3.37;3.03;;;23.80;1.00;;;;;;5056998;28;20470;-70
2021/06/05 07:53:33;;;;;;;3.93;3.60;;;23.90;1.00;;;;;;5057367;28;20520;-70
2021/06/05 07:55:59;;;;;;;3.33;3.13;;;24.00;1.00;;;;;;5056864;28;20764;-70
2021/06/05 07:58:27;;;;;;;3.20;2.50;;;24.00;1.00;;;;;;5057194;28;20799;-70
2021/06/05 08:00:53;;;;;;;3.80;3.50;;;24.10;1.00;;;;;;5057018;28;20470;-71
2021/06/05 08:03:20;;;;;;;3.60;3.30;;;24.20;1.00;;;;;;5056770;28;20786;-70
2021/06/05 08:05:46;;;;;;;3.37;3.07;;;24.30;1.00;;;;;;5056685;28;20490;-70
2021/06/05 08:08:15;;;;;;;3.60;3.30;;;24.40;1.00;;;;;;5056603;28;20534;-71
2021/06/05 08:10:42;;;;;;;3.23;3.03;;;24.40;1.00;;;;;;5057032;28;20463;-70
2021/06/05 08:13:09;;;;;;;3.00;2.80;;;24.50;1.00;;;;;;5056563;28;20470;-70
2021/06/05 08:15:39;;;;;;;3.70;2.70;;;24.50;1.00;;;;;;5057055;28;20455;-70
2021/06/05 08:18:07;;;;;;;3.70;3.40;;;24.60;1.00;;;;;;5056414;28;20466;-70
2021/06/05 08:20:37;;;;;;;3.37;3.07;;;24.60;1.00;;;;;;5056741;28;20458;-70
2021/06/05 08:23:06;;;;;;;3.10;2.80;;;24.60;1.00;;;;;;5056383;28;20919;-69
2021/06/05 08:25:32;;;;;;;3.93;3.60;;;24.70;1.00;;;;;;5056026;28;20483;-69
2021/06/05 08:27:59;;;;;;;3.20;3.00;;;24.70;1.00;;;;;;5056513;28;20459;-70
2021/06/05 08:30:28;;;;;;;3.20;3.00;;;24.70;1.00;;;;;;5056533;28;20455;-70
2021/06/05 08:32:56;;;;;;;3.57;3.27;;;24.80;1.00;;;;;;5056306;28;20470;-70
2021/06/05 08:35:22;;;;;;;3.53;3.03;;;24.80;1.00;;;;;;5056170;28;20483;-70
2021/06/05 08:37:49;;;;;;;3.60;3.30;;;24.90;1.00;;;;;;5057124;28;20767;-70
2021/06/05 08:40:21;;;;;;;3.50;3.30;;;24.90;1.00;;;;;;5056546;28;20455;-70
2021/06/05 08:42:49;;;;;;;4.10;3.67;;;25.00;1.00;;;;;;5056543;28;20774;-70
2021/06/05 08:45:20;;;;;;;3.57;3.27;;;25.10;1.00;;;;;;5056070;28;20482;-70
2021/06/05 08:47:46;;;;;;;5.37;3.27;;;25.10;1.00;;;;;;5056239;28;20773;-70
2021/06/05 08:50:17;;;;;;;5.73;3.50;;;25.10;1.00;;;;;;5055182;28;20454;-71
2021/06/05 08:52:56;;;;;;;3.93;3.23;;;25.20;1.00;;;;;;5056004;28;20443;-71
2021/06/05 08:55:29;;;;;;;3.20;3.00;;;25.30;1.00;;;;;;5056362;28;20435;-70
2021/06/05 08:57:59;;;;;;;3.60;3.30;;;25.40;1.00;;;;;;5055435;28;20454;-71
2021/06/05 09:00:28;;;;;;;3.87;3.57;;;25.50;1.00;;;;;;5055819;28;20455;-70
2021/06/05 09:02:58;;;;;;;3.20;2.97;;;25.60;1.00;;;;;;5055848;28;20459;-70
2021/06/05 09:05:30;;;;;;;4.30;3.90;;;25.80;1.00;;;;;;5055934;28;20478;-70
2021/06/05 09:07:57;;;;;;;3.53;3.33;;;25.90;1.00;;;;;;5056187;28;20475;-71
2021/06/05 09:10:23;;;;;;;3.50;3.20;;;26.00;1.00;;;;;;5055478;28;20830;-71
2021/06/05 09:12:50;;;;;;;3.77;3.47;;;26.00;1.00;;;;;;5055333;28;20458;-71
2021/06/05 09:15:23;;;;;;;4.03;3.63;;;26.10;1.00;;;;;;5056315;28;20704;-71
2021/06/05 09:17:51;;;;;;;3.53;3.23;;;26.20;1.00;;;;;;5055073;28;20745;-71
2021/06/05 09:20:34;;;;;;;3.50;3.20;;;26.20;1.00;;;;;;5055494;28;20512;-70
2021/06/05 09:23:01;;;;;;;4.60;3.43;;;26.30;1.00;;;;;;5055440;28;20894;-70
2021/06/05 09:25:32;;;;;;;3.17;2.97;;;26.40;1.00;;;;;;5055032;28;20483;-70
2021/06/05 09:28:14;;;;;;;3.47;3.17;;;26.40;1.00;;;;;;5055126;28;20443;-70
2021/06/05 09:30:42;;;;;;;3.43;3.13;;;26.50;1.00;;;;;;5055182;28;20485;-70
2021/06/05 09:33:11;;;;;;;3.67;3.37;;;26.50;1.00;;;;;;5056230;28;20942;-71
2021/06/05 09:35:42;;;;;;;4.03;3.73;;;26.60;1.00;;;;;;5055642;28;20439;-70
2021/06/05 09:38:16;;;;;;;4.87;3.47;;;26.70;1.00;;;;;;5055784;28;20892;-71
2021/06/05 09:41:07;;;;;;;4.03;3.67;;;26.80;1.00;;;;;;5055704;28;20443;-70
2021/06/05 09:43:34;;;;;;;5.10;3.70;;;26.80;1.00;;;;;;5055019;28;20501;-71
2021/06/05 09:46:07;;;;;;;6.40;3.23;;;26.80;1.00;;;;;;5054840;28;20489;-71
2021/06/05 09:48:36;;;;;;;3.57;3.37;;;26.80;1.00;;;;;;5054966;28;20435;-70
2021/06/05 09:51:22;;;;;;;4.10;3.70;;;26.80;1.00;;;;;;5055139;28;20524;-70
2021/06/05 09:53:57;;;;;;;3.63;3.43;;;26.70;1.00;;;;;;5054384;28;20450;-70
2021/06/05 09:56:27;;;;;;;3.60;2.93;;;26.70;1.00;;;;;;5054734;28;20446;-70
2021/06/05 09:59:02;;;;;;;3.60;3.40;;;26.70;1.00;;;;;;5055064;28;20482;-70
2021/06/05 10:01:31;;;;;;;4.20;2.97;;;26.70;1.00;;;;;;5055021;28;20791;-70
2021/06/05 10:04:09;;;;;;;5.30;3.67;;;26.80;1.00;;;;;;5054776;28;20481;-70
2021/06/05 10:06:41;;;;;;;3.67;3.10;;;26.80;1.00;;;;;;5054640;28;20435;-70
2021/06/05 10:09:37;;;;;;;4.10;3.80;;;26.80;1.00;;;;;;5054448;28;20454;-70
2021/06/05 10:12:07;;;;;;;3.70;3.10;;;26.90;1.00;;;;;;5054468;28;20459;-69
2021/06/05 10:14:58;;;;;;;4.03;3.63;;;27.00;1.00;;;;;;5054735;28;20435;-71
2021/06/05 10:17:37;;;;;;;8.63;3.97;;;27.00;1.00;;;;;;5051354;28;20455;-71
2021/06/05 10:20:16;;;;;;;3.90;3.70;;;27.00;1.00;;;;;;5054440;28;20953;-71
2021/06/05 10:22:44;;;;;;;4.03;3.40;;;27.00;1.00;;;;;;5054444;28;20465;-70
2021/06/05 10:25:19;;;;;;;4.43;4.03;;;27.10;1.00;;;;;;5054523;28;20490;-70
2021/06/05 10:27:48;;;;;;;4.17;3.77;;;27.10;1.00;;;;;;5054637;28;20769;-71
2021/06/05 10:30:36;;;;;;;4.03;3.63;;;27.10;1.00;;;;;;5054458;28;20517;-70
2021/06/05 10:33:05;;;;;;;4.23;3.77;;;27.10;1.00;;;;;;5054562;28;20767;-70
2021/06/05 10:35:34;;;;;;;4.53;4.13;;;27.10;1.00;;;;;;5054316;28;20523;-70
2021/06/05 10:38:07;;;;;;;3.63;3.43;;;27.10;1.00;;;;;;5054362;28;20454;-70
2021/06/05 10:40:33;;;;;;;3.93;3.50;;;27.20;1.00;;;;;;5054412;28;20440;-70
2021/06/05 10:43:00;;;;;;;4.30;4.00;;;27.20;1.00;;;;;;5054336;28;20919;-70
2021/06/05 10:45:29;;;;;;;4.47;4.00;;;27.30;1.00;;;;;;5054335;28;20490;-71
2021/06/05 10:47:59;;;;;;;4.00;3.70;;;27.30;1.00;;;;;;5054710;28;20466;-70
2021/06/05 10:50:29;;;;;;;5.10;3.80;;;27.30;1.00;;;;;;5054459;28;20451;-70
2021/06/05 10:53:01;;;;;;;3.70;3.43;;;27.30;1.00;;;;;;5054762;28;20464;-70
2021/06/05 10:55:35;;;;;;;5.70;4.03;;;27.30;1.00;;;;;;5054970;28;20766;-71
2021/06/05 10:58:21;;;;;;;4.87;3.63;;;27.30;1.00;;;;;;5055733;28;20439;-71
2021/06/05 11:00:51;;;;;;;5.93;4.07;;;27.40;1.00;;;;;;5058289;28;20535;-71
2021/06/05 11:03:53;;;;;;;3.80;3.50;;;27.40;1.00;;;;;;5058792;28;20530;-71
2021/06/05 11:06:22;;;;;;;3.73;3.50;;;27.50;1.00;;;;;;4996749;28;20472;-70
2021/06/05 11:08:52;;;;;;;4.00;3.70;;;27.60;1.00;;;;;;4996983;28;20458;-70
2021/06/05 11:11:45;;;;;;;4.60;3.63;;;27.70;1.00;;;;;;5027814;28;20461;-72
2021/06/05 11:14:52;;;;;;;5.20;4.43;;;27.80;1.00;;;;;;5058167;28;20463;-70
2021/06/05 11:17:35;;;;;;;4.20;3.70;;;28.10;1.00;;;;;;5058045;28;20466;-70
2021/06/05 11:20:34;;;;;;;5.50;3.80;;;28.60;1.00;;;;;;5059042;28;20802;-71
2021/06/05 11:23:13;;;;;;;6.80;3.60;;;29.20;1.00;;;;;;5024987;28;20549;-70
2021/06/05 11:25:44;;;;;;;4.23;3.90;;;30.00;1.00;;;;;;5058883;28;20471;-72
2021/06/05 11:28:28;;;;;;;4.20;3.10;;;31.00;1.00;;;;;;5057536;28;20872;-72
2021/06/05 11:30:55;;;;;;;3.60;3.30;;;32.10;1.00;;;;;;5057068;28;20483;-72
2021/06/05 11:33:43;;;;;;;6.50;3.50;;;33.10;1.00;;;;;;5058037;28;20520;-72
2021/06/05 11:36:33;;;;;;;3.93;3.63;;;34.00;1.00;;;;;;5057527;28;20463;-72
2021/06/05 11:39:00;;;;;;;3.00;2.80;;;34.90;1.00;;;;;;5057292;28;20469;-72
2021/06/05 11:41:42;;;;;;;3.40;3.20;;;35.60;1.00;;;;;;5057473;28;20798;-72
2021/06/05 11:44:22;;;;;;;2.53;2.33;;;36.30;1.00;;;;;;5057371;28;20542;-72
2021/06/05 11:46:51;;;;;;;3.30;3.10;;;36.90;1.00;;;;;;5057043;28;20450;-72
2021/06/05 11:49:43;;;;;;;3.30;3.10;;;37.50;1.00;;;;;;5057390;28;20459;-72
2021/06/05 11:52:41;;;;;;;3.00;2.80;;;38.10;1.00;;;;;;5057338;28;20469;-72
2021/06/05 11:55:21;;;;;;;3.20;3.00;;;38.60;1.00;;;;;;4995891;28;20497;-72
2021/06/05 11:57:58;;;;;;;2.70;2.50;;;38.90;1.00;;;;;;5049184;28;20550;-72
2021/06/05 12:00:30;;;;;;;3.40;3.10;;;39.20;1.00;;;;;;5057262;28;20435;-71
2021/06/05 12:02:59;;;;;;;3.13;2.93;;;39.50;1.00;;;;;;5056940;28;20775;-72
2021/06/05 12:05:30;;;;;;;2.90;2.67;;;39.80;1.00;;;;;;5056999;28;20490;-72
2021/06/05 12:07:56;;;;;;;5.73;2.60;;;39.70;1.00;;;;;;5056837;28;20522;-72
2021/06/05 12:10:35;;;;;;;2.57;2.37;;;39.90;1.00;;;;;;5055701;28;20480;-72
2021/06/05 12:13:03;;;;;;;2.57;2.37;;;40.10;1.00;;;;;;5057212;28;20455;-70
2021/06/05 12:15:36;;;;;;;2.60;2.40;;;40.40;1.00;;;;;;5057102;28;20467;-72
2021/06/05 12:18:06;;;;;;;6.40;2.33;;;40.50;1.00;;;;;;5056853;28;20914;-71
2021/06/05 12:20:39;;;;;;;2.27;2.07;;;40.70;1.00;;;;;;5057125;28;20459;-70
2021/06/05 12:23:20;;;;;;;5.20;2.67;;;40.70;1.00;;;;;;5056600;28;20915;-72
2021/06/05 12:25:47;;;;;;;2.87;2.60;;;40.70;1.00;;;;;;5056369;28;20962;-72
2021/06/05 12:28:16;;;;;;;2.80;2.60;;;40.60;1.00;;;;;;5056678;28;20466;-73
2021/06/05 12:30:47;;;;;;;3.50;2.40;;;40.40;1.00;;;;;;5056815;28;20455;-71
2021/06/05 12:33:26;;;;;;;2.80;2.60;;;40.20;1.00;;;;;;5055929;28;20454;-72
2021/06/05 12:35:53;;;;;;;3.00;2.80;;;40.20;1.00;;;;;;5056755;28;20514;-72
2021/06/05 12:38:31;;;;;;;7.60;2.60;;;40.30;1.00;;;;;;5056363;28;20829;-72
2021/06/05 12:41:01;;;;;;;2.83;2.63;;;40.40;1.00;;;;;;5056569;28;20458;-73
2021/06/05 12:43:32;;;;;;;2.50;2.30;;;40.30;1.00;;;;;;5056332;28;20516;-72
2021/06/05 12:46:01;;;;;;;2.30;2.20;;;40.50;1.00;;;;;;5055952;28;20467;-72
2021/06/05 12:48:29;;;;;;;3.40;2.57;;;40.70;1.00;;;;;;5057244;28;20465;-72
2021/06/05 12:50:58;;;;;;;2.80;2.53;;;40.50;1.00;;;;;;5056122;28;20517;-72
2021/06/05 12:53:29;;;;;;;2.47;2.23;;;40.50;1.00;;;;;;5056180;28;20524;-72
2021/06/05 12:55:58;;;;;;;2.60;2.40;;;40.70;1.00;;;;;;5055986;28;20769;-73
2021/06/05 12:58:34;;;;;;;2.50;2.30;;;40.90;1.00;;;;;;5056654;28;20459;-72
2021/06/05 13:01:04;;;;;;;2.63;2.43;;;41.20;1.00;;;;;;5056007;28;20473;-72
2021/06/05 13:03:42;;;;;;;2.17;1.97;;;40.90;1.00;;;;;;5056661;28;20934;-71
2021/06/05 13:06:17;;;;;;;2.53;2.33;;;40.40;1.00;;;;;;5055736;28;20975;-71
2021/06/05 13:08:46;;;;;;;2.67;2.47;;;40.50;1.00;;;;;;5055585;28;20590;-70
2021/06/05 13:11:38;;;;;;;4.00;2.60;;;40.70;1.00;;;;;;5056133;28;20533;-72